Time;durP1;ratioP1;P1;durP2;ratioP2;P2;SDS_P1;SDS_P2;PMS_P1;PMS_P2;Temp;Humidity;BMP_temperature;BMP_pressure;BME280_temperature;BME280_humidity;BME280_pressure;Samples;Min_cycle;Max_cycle;Signal;HPM_P1;HPM_P2
2021/09/03 00:01:19;;;;;;;32.40;20.50;;;15.30;81.80;;;;;;5048304;28;20389;-77
2021/09/03 00:03:44;;;;;;;36.40;22.17;;;15.30;82.60;;;;;;5054308;28;20393;-77
2021/09/03 00:06:10;;;;;;;30.67;21.17;;;15.10;83.40;;;;;;5053998;28;20393;-76
2021/09/03 00:08:36;;;;;;;37.20;20.97;;;15.00;87.50;;;;;;5052856;28;20869;-76
2021/09/03 00:11:01;;;;;;;32.23;19.97;;;15.10;84.90;;;;;;5056311;28;20481;-76
2021/09/03 00:13:27;;;;;;;37.27;20.20;;;14.90;86.70;;;;;;5059241;28;20422;-77
2021/09/03 00:15:53;;;;;;;37.60;20.50;;;14.70;91.70;;;;;;5059162;28;20789;-76
2021/09/03 00:18:19;;;;;;;33.40;21.10;;;14.60;91.80;;;;;;5057936;28;20461;-77
2021/09/03 00:20:44;;;;;;;34.60;20.70;;;14.70;93.40;;;;;;5056545;28;20864;-76
2021/09/03 00:23:10;;;;;;;31.50;19.90;;;14.80;92.50;;;;;;5054166;28;20381;-76
2021/09/03 00:25:36;;;;;;;37.63;21.63;;;14.60;92.50;;;;;;5054027;28;20381;-78
2021/09/03 00:28:02;;;;;;;33.73;20.60;;;14.50;93.10;;;;;;5053977;28;20400;-77
2021/09/03 00:30:27;;;;;;;36.55;19.60;;;14.50;94.60;;;;;;5056134;28;20401;-77
2021/09/03 00:32:53;;;;;;;31.03;20.43;;;14.40;96.80;;;;;;5061357;28;20415;-77
2021/09/03 00:35:18;;;;;;;31.40;19.23;;;14.50;96.80;;;;;;5062392;28;20792;-76
2021/09/03 00:37:44;;;;;;;31.45;20.15;;;14.50;96.60;;;;;;5059335;28;20751;-77
2021/09/03 00:40:10;;;;;;;26.43;18.80;;;14.40;96.70;;;;;;5053474;28;20437;-77
2021/09/03 00:42:35;;;;;;;31.47;19.70;;;14.30;97.30;;;;;;5053876;28;20463;-77
2021/09/03 00:45:01;;;;;;;35.47;21.00;;;14.20;98.40;;;;;;5053847;28;20381;-77
2021/09/03 00:47:27;;;;;;;30.75;19.70;;;14.20;99.90;;;;;;5058275;28;20417;-77
2021/09/03 00:49:52;;;;;;;30.27;20.23;;;14.20;99.90;;;;;;5059695;28;20409;-77
2021/09/03 00:52:19;;;;;;;31.00;20.67;;;14.10;99.90;;;;;;5058734;28;20385;-77
2021/09/03 00:54:45;;;;;;;30.70;20.88;;;14.10;99.90;;;;;;5059449;28;20389;-77
2021/09/03 00:57:11;;;;;;;31.17;20.13;;;14.30;99.90;;;;;;5059074;28;20560;-77
2021/09/03 00:59:37;;;;;;;30.20;20.70;;;14.30;97.30;;;;;;5059821;28;20426;-77
2021/09/03 01:02:02;;;;;;;34.05;21.30;;;14.10;97.80;;;;;;5058975;28;20437;-77
2021/09/03 01:04:28;;;;;;;36.47;21.00;;;14.00;99.90;;;;;;5058631;28;20859;-76
2021/09/03 01:06:54;;;;;;;32.58;21.40;;;13.90;99.90;;;;;;5053901;28;20399;-75
2021/09/03 01:09:19;;;;;;;35.63;21.33;;;13.90;99.90;;;;;;5052681;28;20812;-76
2021/09/03 01:11:45;;;;;;;32.40;20.83;;;13.90;99.90;;;;;;5051132;28;20429;-76
2021/09/03 01:14:11;;;;;;;38.03;21.70;;;13.80;99.90;;;;;;5051724;28;20492;-77
2021/09/03 01:16:36;;;;;;;35.40;21.40;;;13.80;99.90;;;;;;5052556;28;20374;-76
2021/09/03 01:19:02;;;;;;;36.58;20.75;;;13.80;99.90;;;;;;5052067;28;20839;-76
2021/09/03 01:21:28;;;;;;;32.55;20.98;;;13.70;99.90;;;;;;5065541;28;20821;-76
2021/09/03 01:23:54;;;;;;;36.50;21.47;;;13.70;99.90;;;;;;5071903;28;20392;-77
2021/09/03 01:26:19;;;;;;;36.72;21.30;;;13.60;99.90;;;;;;5070868;28;20398;-77
2021/09/03 01:28:48;;;;;;;32.85;20.80;;;13.60;99.90;;;;;;5055522;28;20420;-76
2021/09/03 01:31:14;;;;;;;36.67;21.42;;;13.70;99.90;;;;;;5051990;28;20408;-76
2021/09/03 01:33:40;;;;;;;35.92;21.98;;;13.70;99.90;;;;;;5051719;28;20719;-77
2021/09/03 01:36:06;;;;;;;35.97;21.00;;;13.60;99.90;;;;;;5050440;28;20389;-76
2021/09/03 01:38:31;;;;;;;37.40;21.88;;;13.60;99.90;;;;;;5051631;28;20436;-76
2021/09/03 01:40:57;;;;;;;33.95;22.17;;;13.50;99.90;;;;;;5052820;28;20389;-78
2021/09/03 01:43:22;;;;;;;33.10;20.92;;;13.60;99.90;;;;;;5056492;28;20413;-77
2021/09/03 01:45:48;;;;;;;38.83;22.58;;;13.70;99.90;;;;;;5054543;28;20468;-78
2021/09/03 01:48:14;;;;;;;34.38;22.17;;;13.60;99.90;;;;;;5066216;28;20393;-78
2021/09/03 01:50:40;;;;;;;33.37;22.30;;;13.60;99.90;;;;;;5063441;28;20401;-77
2021/09/03 01:53:06;;;;;;;34.53;21.73;;;13.80;99.90;;;;;;5061170;28;20403;-77
2021/09/03 01:55:31;;;;;;;31.53;20.40;;;14.10;99.90;;;;;;5059929;28;20476;-77
2021/09/03 01:57:58;;;;;;;31.90;20.53;;;14.30;97.20;;;;;;5054660;28;20386;-76
2021/09/03 02:00:25;;;;;;;32.23;21.03;;;14.30;93.50;;;;;;5052241;28;20386;-77
2021/09/03 02:02:50;;;;;;;33.78;21.80;;;14.10;95.40;;;;;;5050933;28;20408;-76
2021/09/03 02:05:16;;;;;;;35.75;21.90;;;14.10;97.50;;;;;;5050231;28;20738;-77
2021/09/03 02:07:41;;;;;;;36.90;21.85;;;14.10;97.00;;;;;;5052393;28;20392;-78
2021/09/03 02:10:08;;;;;;;37.67;22.85;;;14.00;98.20;;;;;;5051574;28;20409;-76
2021/09/03 02:12:33;;;;;;;36.45;22.88;;;14.10;97.30;;;;;;5050736;28;20948;-77
2021/09/03 02:14:59;;;;;;;34.00;21.70;;;14.10;96.80;;;;;;5052722;28;20385;-77
2021/09/03 02:17:24;;;;;;;36.27;22.57;;;14.10;96.80;;;;;;5051631;28;20405;-78
2021/09/03 02:19:50;;;;;;;34.85;21.60;;;14.10;96.90;;;;;;5051983;28;20393;-76
2021/09/03 02:22:16;;;;;;;34.95;22.35;;;14.00;96.70;;;;;;5051188;28;20393;-77
2021/09/03 02:24:41;;;;;;;32.92;21.10;;;13.90;96.50;;;;;;5059217;28;20454;-77
2021/09/03 02:27:07;;;;;;;32.22;22.15;;;13.80;99.40;;;;;;5061340;28;20403;-77
2021/09/03 02:29:32;;;;;;;37.10;21.97;;;13.70;99.90;;;;;;5061078;28;20429;-77
2021/09/03 02:31:58;;;;;;;36.60;22.93;;;13.70;99.90;;;;;;5058813;28;20381;-77
2021/09/03 02:34:23;;;;;;;33.37;22.00;;;13.60;99.90;;;;;;5053249;28;20377;-77
2021/09/03 02:36:49;;;;;;;33.63;21.67;;;13.70;99.90;;;;;;5053323;28;20378;-77
2021/09/03 02:39:15;;;;;;;40.00;22.10;;;13.60;99.90;;;;;;5058102;28;20376;-78
2021/09/03 02:41:41;;;;;;;32.13;20.67;;;13.70;99.90;;;;;;5055786;28;20965;-77
2021/09/03 02:44:06;;;;;;;29.63;20.30;;;13.80;99.70;;;;;;5053871;28;20425;-77
2021/09/03 02:46:32;;;;;;;28.87;19.40;;;13.90;98.30;;;;;;5055278;28;20397;-77
2021/09/03 02:48:58;;;;;;;28.03;20.03;;;13.70;99.10;;;;;;5056954;28;20386;-77
2021/09/03 02:51:23;;;;;;;33.20;20.17;;;13.90;97.60;;;;;;5052665;28;20413;-77
2021/09/03 02:53:49;;;;;;;30.38;18.70;;;14.00;94.40;;;;;;5053052;28;20385;-77
2021/09/03 02:56:14;;;;;;;29.45;18.60;;;14.00;92.70;;;;;;5052214;28;20393;-77
2021/09/03 02:58:40;;;;;;;32.63;21.47;;;14.00;92.40;;;;;;5052580;28;20390;-77
2021/09/03 03:01:05;;;;;;;34.47;19.97;;;13.80;92.20;;;;;;5053558;28;20381;-78
2021/09/03 03:03:31;;;;;;;31.00;20.27;;;13.60;95.20;;;;;;5052261;28;20420;-77
2021/09/03 03:05:56;;;;;;;30.30;20.30;;;13.60;97.90;;;;;;5053869;28;20780;-76
2021/09/03 03:08:22;;;;;;;28.15;19.80;;;13.50;98.00;;;;;;5051982;28;20511;-77
2021/09/03 03:10:48;;;;;;;30.85;18.70;;;13.30;99.90;;;;;;5050853;28;20499;-77
2021/09/03 03:13:27;;;;;;;30.38;19.70;;;13.30;99.90;;;;;;5048623;28;20462;-76
2021/09/03 03:15:53;;;;;;;31.65;20.08;;;13.20;99.90;;;;;;5050127;28;20397;-77
2021/09/03 03:18:19;;;;;;;31.45;19.65;;;13.30;99.90;;;;;;5052238;28;20756;-77
2021/09/03 03:20:47;;;;;;;30.67;19.95;;;13.40;99.90;;;;;;5053976;28;20381;-77
2021/09/03 03:23:13;;;;;;;33.30;19.83;;;13.30;99.90;;;;;;5051239;28;20381;-76
2021/09/03 03:25:40;;;;;;;28.90;19.67;;;13.30;99.90;;;;;;5051523;28;20396;-77
2021/09/03 03:28:06;;;;;;;30.20;19.97;;;13.20;99.90;;;;;;5050709;28;20424;-76
2021/09/03 03:30:31;;;;;;;28.42;18.92;;;13.20;99.90;;;;;;5049043;28;20413;-76
2021/09/03 03:32:57;;;;;;;33.75;20.33;;;13.20;99.90;;;;;;5051038;28;20381;-77
2021/09/03 03:35:23;;;;;;;35.38;20.30;;;13.10;99.90;;;;;;5050653;28;20388;-77
2021/09/03 03:37:49;;;;;;;28.95;19.60;;;13.10;99.90;;;;;;5055323;28;20393;-77
2021/09/03 03:40:16;;;;;;;30.05;19.40;;;13.00;99.90;;;;;;5057818;28;20405;-78
2021/09/03 03:42:41;;;;;;;27.88;19.67;;;12.90;99.90;;;;;;5059169;28;20526;-78
2021/09/03 03:45:08;;;;;;;33.53;19.67;;;12.90;99.90;;;;;;5061038;28;20435;-78
2021/09/03 03:47:34;;;;;;;28.00;19.30;;;13.00;99.90;;;;;;5056923;28;20385;-77
2021/09/03 03:50:00;;;;;;;31.40;19.75;;;13.00;99.90;;;;;;5057399;28;20770;-76
2021/09/03 03:52:26;;;;;;;29.90;19.73;;;12.90;99.90;;;;;;5055554;28;20402;-77
2021/09/03 03:54:51;;;;;;;31.90;20.20;;;12.80;99.90;;;;;;5057163;28;20381;-77
2021/09/03 03:57:17;;;;;;;31.95;20.92;;;12.90;99.90;;;;;;5058247;28;20419;-78
2021/09/03 03:59:43;;;;;;;30.63;18.98;;;12.90;99.90;;;;;;5058779;28;20431;-78
2021/09/03 04:02:08;;;;;;;31.25;20.35;;;13.10;99.90;;;;;;5059511;28;20381;-78
2021/09/03 04:04:34;;;;;;;32.28;20.17;;;13.00;99.90;;;;;;5059901;28;20381;-78
2021/09/03 04:07:00;;;;;;;34.03;22.17;;;13.00;99.90;;;;;;5059290;28;20412;-78
2021/09/03 04:09:25;;;;;;;30.38;20.30;;;12.90;99.90;;;;;;5065477;28;20417;-78
2021/09/03 04:11:51;;;;;;;34.20;19.93;;;12.70;99.90;;;;;;5065073;28;20499;-76
2021/09/03 04:14:18;;;;;;;30.53;20.17;;;12.80;99.90;;;;;;5058131;28;20438;-77
2021/09/03 04:16:45;;;;;;;31.75;20.30;;;12.80;99.90;;;;;;5058907;28;20393;-78
2021/09/03 04:19:10;;;;;;;29.67;19.30;;;12.70;99.90;;;;;;5069031;28;20397;-79
2021/09/03 04:21:36;;;;;;;34.50;20.20;;;12.70;99.90;;;;;;5065926;28;20434;-78
2021/09/03 04:24:01;;;;;;;32.05;19.50;;;12.70;99.90;;;;;;5058225;28;20392;-77
2021/09/03 04:26:27;;;;;;;30.85;20.33;;;12.60;99.90;;;;;;5057311;28;20413;-77
2021/09/03 04:28:53;;;;;;;29.45;19.45;;;12.60;99.90;;;;;;5057277;28;20393;-77
2021/09/03 04:31:18;;;;;;;29.03;19.80;;;12.50;99.90;;;;;;5058217;28;20408;-78
2021/09/03 04:33:44;;;;;;;32.97;19.67;;;12.50;99.90;;;;;;5063666;28;20417;-77
2021/09/03 04:36:09;;;;;;;33.77;20.63;;;12.50;99.90;;;;;;5059169;28;20499;-77
2021/09/03 04:38:35;;;;;;;30.07;20.17;;;12.40;99.90;;;;;;5061068;28;20519;-77
2021/09/03 04:41:00;;;;;;;33.40;20.60;;;12.40;99.90;;;;;;5067004;28;20450;-77
2021/09/03 04:43:26;;;;;;;32.83;19.80;;;12.50;99.90;;;;;;5072533;28;20409;-77
2021/09/03 04:45:51;;;;;;;28.40;19.20;;;12.60;99.90;;;;;;5065807;28;20388;-77
2021/09/03 04:48:17;;;;;;;29.80;19.50;;;12.90;99.90;;;;;;5056278;28;20397;-77
2021/09/03 04:50:43;;;;;;;30.87;20.37;;;12.80;99.90;;;;;;5054993;28;20405;-77
2021/09/03 04:53:08;;;;;;;30.33;19.40;;;12.60;99.90;;;;;;5055838;28;20544;-77
2021/09/03 04:55:34;;;;;;;31.10;19.83;;;12.50;99.90;;;;;;5057641;28;20520;-77
2021/09/03 04:58:00;;;;;;;32.87;19.10;;;12.40;99.90;;;;;;5060391;28;20377;-76
2021/09/03 05:00:25;;;;;;;30.67;19.43;;;12.40;99.90;;;;;;5061503;28;20413;-77
2021/09/03 05:02:51;;;;;;;32.33;19.43;;;12.40;99.90;;;;;;5065235;28;20466;-78
2021/09/03 05:05:17;;;;;;;31.63;20.48;;;12.40;99.90;;;;;;5060029;28;20390;-78
2021/09/03 05:07:43;;;;;;;30.42;19.33;;;12.40;99.90;;;;;;5065288;28;20400;-77
2021/09/03 05:10:09;;;;;;;34.83;20.52;;;12.50;99.90;;;;;;5063355;28;20410;-78
2021/09/03 05:12:38;;;;;;;34.50;21.10;;;12.50;99.90;;;;;;5065033;28;20382;-78
2021/09/03 05:15:10;;;;;;;31.58;20.40;;;12.50;99.90;;;;;;5057452;28;20381;-77
2021/09/03 05:17:37;;;;;;;31.38;19.75;;;12.50;99.90;;;;;;5061701;28;20381;-77
2021/09/03 05:20:05;;;;;;;35.08;19.70;;;12.50;99.90;;;;;;5062728;28;20389;-78
2021/09/03 05:22:32;;;;;;;32.65;20.70;;;12.50;99.90;;;;;;5062561;28;20467;-78
2021/09/03 05:24:58;;;;;;;32.28;19.70;;;12.50;99.90;;;;;;5062595;28;20433;-77
2021/09/03 05:27:23;;;;;;;35.28;20.90;;;12.50;99.90;;;;;;5060517;28;20404;-77
2021/09/03 05:29:49;;;;;;;30.88;19.48;;;12.60;99.90;;;;;;5067920;28;20386;-77
2021/09/03 05:32:15;;;;;;;32.00;19.40;;;12.60;99.90;;;;;;5068114;28;20424;-78
2021/09/03 05:34:40;;;;;;;29.03;19.03;;;12.80;99.90;;;;;;5060135;28;20377;-77
2021/09/03 05:37:06;;;;;;;37.00;20.80;;;12.90;99.90;;;;;;5062180;28;20420;-77
2021/09/03 05:39:31;;;;;;;32.77;21.03;;;12.90;99.90;;;;;;5065936;28;20453;-77
2021/09/03 05:41:57;;;;;;;35.90;20.67;;;13.00;99.90;;;;;;5062005;28;20474;-77
2021/09/03 05:44:23;;;;;;;32.95;20.55;;;13.10;99.90;;;;;;5054669;28;20389;-77
2021/09/03 05:46:48;;;;;;;32.53;20.88;;;13.20;99.90;;;;;;5055659;28;20381;-76
2021/09/03 05:49:14;;;;;;;32.65;20.75;;;13.20;99.90;;;;;;5054214;28;20889;-77
2021/09/03 05:51:40;;;;;;;36.00;21.90;;;13.30;99.90;;;;;;5057757;28;20409;-78
2021/09/03 05:54:09;;;;;;;29.92;20.17;;;13.40;99.90;;;;;;5057295;28;20385;-78
2021/09/03 05:56:37;;;;;;;33.30;21.38;;;13.50;99.90;;;;;;5053309;28;20385;-77
2021/09/03 05:59:06;;;;;;;34.30;21.05;;;13.50;99.90;;;;;;5051751;28;20390;-77
2021/09/03 06:01:33;;;;;;;33.03;20.27;;;13.60;99.40;;;;;;5053801;28;20406;-77
2021/09/03 06:03:59;;;;;;;32.55;20.30;;;13.70;97.40;;;;;;5053924;28;20405;-77
2021/09/03 06:06:25;;;;;;;36.60;21.10;;;13.80;96.60;;;;;;5059654;28;20393;-78
2021/09/03 06:08:52;;;;;;;34.73;21.30;;;13.90;94.40;;;;;;5060322;28;20915;-77
2021/09/03 06:11:25;;;;;;;37.92;21.77;;;14.00;94.70;;;;;;5050095;28;20478;-76
2021/09/03 06:13:52;;;;;;;29.35;20.23;;;14.10;94.60;;;;;;5050340;28;20405;-78
2021/09/03 06:16:18;;;;;;;40.37;20.97;;;14.20;92.80;;;;;;5050662;28;20446;-77
2021/09/03 06:18:43;;;;;;;30.27;19.60;;;14.40;92.00;;;;;;5056375;28;20649;-78
2021/09/03 06:21:09;;;;;;;29.97;18.80;;;14.60;86.80;;;;;;5057616;28;20447;-77
2021/09/03 06:23:34;;;;;;;31.95;19.13;;;14.80;83.20;;;;;;5054018;28;20416;-77
2021/09/03 06:26:00;;;;;;;32.40;19.90;;;14.90;80.80;;;;;;5052100;28;20396;-77
2021/09/03 06:28:26;;;;;;;30.97;19.13;;;15.00;80.20;;;;;;5051032;28;20405;-77
2021/09/03 06:30:51;;;;;;;32.27;20.50;;;15.10;80.40;;;;;;5049349;28;20437;-77
2021/09/03 06:33:17;;;;;;;37.10;20.33;;;15.10;82.30;;;;;;5050523;28;20389;-77
2021/09/03 06:35:42;;;;;;;31.73;19.77;;;15.20;82.10;;;;;;5051312;28;20828;-75
2021/09/03 06:38:08;;;;;;;32.30;18.88;;;15.50;76.00;;;;;;5051808;28;20725;-78
2021/09/03 06:40:34;;;;;;;26.13;19.25;;;15.60;75.70;;;;;;5051259;28;20381;-77
2021/09/03 06:42:59;;;;;;;29.00;19.42;;;15.60;74.10;;;;;;5052529;28;20397;-78
2021/09/03 06:45:25;;;;;;;24.77;17.13;;;15.70;75.00;;;;;;5052728;28;20421;-77
2021/09/03 06:47:50;;;;;;;28.93;18.90;;;16.00;71.90;;;;;;5050135;28;20459;-76
2021/09/03 06:50:17;;;;;;;30.87;17.90;;;16.10;69.10;;;;;;5049752;28;20928;-76
2021/09/03 06:52:42;;;;;;;24.15;17.40;;;16.20;67.20;;;;;;5047646;28;20394;-75
2021/09/03 06:55:08;;;;;;;26.95;17.30;;;16.30;63.70;;;;;;5031281;28;20379;-76
2021/09/03 06:57:34;;;;;;;32.10;18.52;;;16.30;62.40;;;;;;5037955;28;20401;-75
2021/09/03 06:59:59;;;;;;;29.15;17.50;;;16.30;62.90;;;;;;5049796;28;20401;-74
2021/09/03 07:02:25;;;;;;;24.70;16.20;;;16.40;62.20;;;;;;5056940;28;20401;-76
2021/09/03 07:04:51;;;;;;;27.70;16.23;;;16.40;60.10;;;;;;5057535;28;20740;-73
2021/09/03 07:07:16;;;;;;;22.45;14.93;;;16.50;58.80;;;;;;5052564;28;20413;-75
2021/09/03 07:09:42;;;;;;;23.50;15.50;;;16.60;58.80;;;;;;5052172;28;20458;-76
2021/09/03 07:12:08;;;;;;;25.60;15.80;;;16.70;58.00;;;;;;5047875;28;20908;-78
2021/09/03 07:14:34;;;;;;;21.92;14.93;;;16.70;56.40;;;;;;5048270;28;20408;-75
2021/09/03 07:16:59;;;;;;;22.52;15.50;;;16.80;53.60;;;;;;5048234;28;20429;-74
2021/09/03 07:19:25;;;;;;;21.80;14.87;;;16.90;52.40;;;;;;5034491;28;20462;-76
2021/09/03 07:21:50;;;;;;;25.93;15.27;;;17.00;52.40;;;;;;5043168;28;20489;-76
2021/09/03 07:24:16;;;;;;;25.73;16.02;;;17.20;50.90;;;;;;5048041;28;20467;-76
2021/09/03 07:26:42;;;;;;;22.40;16.02;;;17.20;51.00;;;;;;5074634;28;20991;-73
2021/09/03 07:29:07;;;;;;;20.52;14.43;;;17.40;49.20;;;;;;5045134;28;20410;-74
2021/09/03 07:31:33;;;;;;;23.00;14.27;;;17.50;47.30;;;;;;5044037;28;20886;-74
2021/09/03 07:34:00;;;;;;;20.80;13.57;;;17.70;45.70;;;;;;5049365;28;20392;-74
2021/09/03 07:36:25;;;;;;;19.95;13.23;;;18.00;43.60;;;;;;5048771;28;20500;-73
2021/09/03 07:38:51;;;;;;;22.17;13.53;;;18.00;44.20;;;;;;5049158;28;20393;-75
2021/09/03 07:41:17;;;;;;;20.60;12.37;;;18.20;41.80;;;;;;5036912;28;20492;-77
2021/09/03 07:43:42;;;;;;;18.48;13.50;;;18.40;40.10;;;;;;5048217;28;20831;-77
2021/09/03 07:46:08;;;;;;;20.80;13.95;;;18.50;40.00;;;;;;5041005;28;20395;-76
2021/09/03 07:48:34;;;;;;;20.10;14.10;;;18.50;40.80;;;;;;5032406;28;20400;-74
2021/09/03 07:51:00;;;;;;;23.95;13.70;;;18.70;39.60;;;;;;5048233;28;20419;-74
2021/09/03 07:53:25;;;;;;;21.40;13.10;;;18.60;39.20;;;;;;5048236;28;20450;-76
2021/09/03 07:55:51;;;;;;;17.77;13.03;;;18.60;39.90;;;;;;5047554;28;20770;-76
2021/09/03 07:58:17;;;;;;;19.35;13.05;;;18.80;38.20;;;;;;5048276;28;20401;-77
2021/09/03 08:00:43;;;;;;;22.42;14.43;;;18.80;38.60;;;;;;5050131;28;20393;-75
2021/09/03 08:03:08;;;;;;;21.90;13.57;;;18.80;38.90;;;;;;5049041;28;20389;-73
2021/09/03 08:05:34;;;;;;;21.98;13.57;;;19.00;38.50;;;;;;5073978;28;20403;-74
2021/09/03 08:08:02;;;;;;;17.67;11.77;;;19.20;36.80;;;;;;5044604;28;20404;-74
2021/09/03 08:10:31;;;;;;;19.75;13.10;;;19.40;36.30;;;;;;5042731;28;20898;-74
2021/09/03 08:12:57;;;;;;;14.20;11.80;;;19.50;35.90;;;;;;5039329;28;20825;-73
2021/09/03 08:15:22;;;;;;;21.95;13.60;;;19.50;36.10;;;;;;5049120;28;20421;-75
2021/09/03 08:17:48;;;;;;;21.50;13.10;;;19.60;35.60;;;;;;5048416;28;20793;-73
2021/09/03 08:20:14;;;;;;;21.40;13.23;;;19.70;35.20;;;;;;5049211;28;20428;-75
2021/09/03 08:22:40;;;;;;;17.97;13.23;;;19.70;35.60;;;;;;5048761;28;20429;-76
2021/09/03 08:25:06;;;;;;;20.77;13.80;;;19.70;36.00;;;;;;5050910;28;20743;-75
2021/09/03 08:27:32;;;;;;;20.33;13.43;;;19.90;35.00;;;;;;5054946;28;20405;-73
2021/09/03 08:29:58;;;;;;;21.30;13.85;;;20.00;34.60;;;;;;5052572;28;20841;-75
2021/09/03 08:32:24;;;;;;;20.63;13.15;;;20.00;34.60;;;;;;5050858;28;20429;-75
2021/09/03 08:34:49;;;;;;;20.98;13.20;;;20.20;33.50;;;;;;5051079;28;20404;-73
2021/09/03 08:37:15;;;;;;;18.70;12.70;;;20.10;33.80;;;;;;5052536;28;20390;-76
2021/09/03 08:39:41;;;;;;;22.88;13.20;;;19.90;34.50;;;;;;5049287;28;20453;-76
2021/09/03 08:42:07;;;;;;;17.30;12.10;;;19.90;34.80;;;;;;5043482;28;20443;-74
2021/09/03 08:44:33;;;;;;;21.35;13.23;;;19.90;35.00;;;;;;5052381;28;20416;-75
2021/09/03 08:46:59;;;;;;;20.40;14.45;;;20.10;34.30;;;;;;5051344;28;20397;-74
2021/09/03 08:49:25;;;;;;;22.95;13.60;;;20.40;33.40;;;;;;5051741;28;20941;-75
2021/09/03 08:51:51;;;;;;;19.50;12.30;;;20.60;32.30;;;;;;5052993;28;20906;-77
2021/09/03 08:54:19;;;;;;;18.87;12.50;;;20.70;31.60;;;;;;5051940;28;20520;-76
2021/09/03 08:56:45;;;;;;;21.58;12.82;;;20.50;31.80;;;;;;5051615;28;20408;-75
2021/09/03 08:59:11;;;;;;;17.97;12.50;;;20.40;32.60;;;;;;5053721;28;20858;-76
2021/09/03 09:01:36;;;;;;;20.02;12.68;;;20.40;32.30;;;;;;5053222;28;20956;-78
2021/09/03 09:04:14;;;;;;;15.65;11.77;;;20.60;31.50;;;;;;5054884;28;20409;-78
2021/09/03 09:07:02;;;;;;;18.15;12.20;;;20.70;31.70;;;;;;5041602;28;20442;-78
2021/09/03 09:09:38;;;;;;;20.50;13.70;;;20.90;31.50;;;;;;5085716;28;20903;-77
2021/09/03 09:12:06;;;;;;;18.73;12.20;;;20.80;31.00;;;;;;5053509;28;20433;-76
2021/09/03 09:15:03;;;;;;;18.75;11.90;;;20.80;31.10;;;;;;5052707;28;20447;-77
2021/09/03 09:17:33;;;;;;;22.00;12.05;;;21.30;30.10;;;;;;5053847;28;20382;-76
2021/09/03 09:19:59;;;;;;;16.17;11.88;;;21.50;29.00;;;;;;5053560;28;20780;-76
2021/09/03 09:22:25;;;;;;;18.00;11.07;;;21.50;29.20;;;;;;5048801;28;20433;-77
2021/09/03 09:24:51;;;;;;;15.57;10.80;;;21.50;29.00;;;;;;5051121;28;20439;-77
2021/09/03 09:27:27;;;;;;;13.37;10.70;;;21.70;29.10;;;;;;5048333;28;20843;-78
2021/09/03 09:29:53;;;;;;;17.00;10.90;;;21.80;29.10;;;;;;5050737;28;20797;-76
2021/09/03 09:32:19;;;;;;;15.40;10.73;;;21.80;27.90;;;;;;5047793;28;20444;-76
2021/09/03 09:34:46;;;;;;;15.13;11.73;;;21.80;27.80;;;;;;5046518;28;20417;-76
2021/09/03 09:37:17;;;;;;;16.30;11.05;;;21.70;27.20;;;;;;5050260;28;20409;-77
2021/09/03 09:39:52;;;;;;;16.10;10.55;;;21.70;27.70;;;;;;5051252;28;20894;-76
2021/09/03 09:42:21;;;;;;;15.45;9.68;;;21.70;27.00;;;;;;5047058;28;20406;-75
2021/09/03 09:45:07;;;;;;;14.13;9.65;;;21.80;27.50;;;;;;5046573;28;20404;-76
2021/09/03 09:47:33;;;;;;;15.45;10.10;;;22.00;26.20;;;;;;5061649;28;20485;-74
2021/09/03 09:50:25;;;;;;;17.13;10.05;;;21.90;26.60;;;;;;5046237;28;20480;-76
2021/09/03 09:52:52;;;;;;;16.00;10.30;;;22.00;26.20;;;;;;5048307;28;20389;-75
2021/09/03 09:55:18;;;;;;;15.35;10.00;;;22.00;26.70;;;;;;5050778;28;20378;-75
2021/09/03 09:57:47;;;;;;;22.00;9.68;;;22.10;26.70;;;;;;5050805;28;20905;-75
2021/09/03 10:00:13;;;;;;;14.32;10.13;;;22.10;26.50;;;;;;5051893;28;20405;-76
2021/09/03 10:02:42;;;;;;;14.63;10.23;;;22.20;25.80;;;;;;5055466;28;20951;-75
2021/09/03 10:05:09;;;;;;;18.08;10.65;;;22.20;26.30;;;;;;5052064;28;20394;-75
2021/09/03 10:07:34;;;;;;;14.02;9.60;;;22.20;25.90;;;;;;5076903;28;20926;-76
2021/09/03 10:10:00;;;;;;;14.40;10.13;;;22.30;26.00;;;;;;5045880;28;20412;-76
2021/09/03 10:12:26;;;;;;;21.65;10.60;;;22.40;26.80;;;;;;5051871;28;20807;-76
2021/09/03 10:14:51;;;;;;;24.10;11.17;;;22.50;26.00;;;;;;5053548;28;20405;-73
2021/09/03 10:17:20;;;;;;;14.97;10.50;;;22.60;26.00;;;;;;5062202;28;20480;-75
2021/09/03 10:19:51;;;;;;;12.88;9.77;;;22.70;25.80;;;;;;5058430;28;20728;-76
2021/09/03 10:22:19;;;;;;;15.50;10.27;;;22.70;25.50;;;;;;5055209;28;20389;-76
2021/09/03 10:24:45;;;;;;;14.85;9.30;;;22.80;25.30;;;;;;5050371;28;20397;-74
2021/09/03 10:27:13;;;;;;;20.10;10.50;;;23.10;25.30;;;;;;5052426;28;20398;-75
2021/09/03 10:29:40;;;;;;;20.73;10.88;;;23.20;24.30;;;;;;5053179;28;20393;-75
2021/09/03 10:32:06;;;;;;;18.55;10.50;;;23.20;23.00;;;;;;5049133;28;20397;-75
2021/09/03 10:34:44;;;;;;;16.23;9.90;;;23.20;23.30;;;;;;5050447;28;20450;-74
2021/09/03 10:37:15;;;;;;;14.50;10.73;;;23.20;23.10;;;;;;5049445;28;20751;-75
2021/09/03 10:39:49;;;;;;;12.10;10.17;;;23.40;23.50;;;;;;5049032;28;20470;-74
2021/09/03 10:45:26;;;;;;;16.83;9.82;;;23.50;23.10;;;;;;5050195;28;20399;-75
2021/09/03 10:48:10;;;;;;;13.98;9.32;;;23.50;22.60;;;;;;5048937;28;21082;-74
2021/09/03 10:50:43;;;;;;;17.30;10.00;;;23.50;23.20;;;;;;5049509;28;20435;-75
2021/09/03 10:53:10;;;;;;;15.73;10.45;;;23.60;23.10;;;;;;5049030;28;20904;-77
2021/09/03 10:56:01;;;;;;;15.85;9.77;;;23.70;22.10;;;;;;5048553;28;20405;-76
2021/09/03 10:58:29;;;;;;;16.10;10.05;;;23.70;21.80;;;;;;5049390;28;20390;-76
2021/09/03 11:01:15;;;;;;;13.90;8.77;;;23.60;22.00;;;;;;5049929;28;20484;-78
2021/09/03 11:03:44;;;;;;;11.10;8.50;;;23.70;20.20;;;;;;5042141;28;20385;-75
2021/09/03 11:06:27;;;;;;;13.10;8.27;;;23.70;19.60;;;;;;5049403;28;20563;-77
2021/09/03 11:09:05;;;;;;;11.95;7.13;;;23.70;17.90;;;;;;5049910;28;20688;-76
2021/09/03 11:11:32;;;;;;;9.93;7.63;;;23.80;17.20;;;;;;5041893;28;20770;-74
2021/09/03 11:14:08;;;;;;;11.45;7.93;;;24.00;17.80;;;;;;5049686;28;20755;-75
2021/09/03 11:16:46;;;;;;;12.80;8.00;;;24.10;18.30;;;;;;5050804;28;20385;-74
2021/09/03 11:19:25;;;;;;;10.10;7.50;;;24.30;18.40;;;;;;5050290;28;20425;-75
2021/09/03 11:21:55;;;;;;;10.30;7.63;;;24.30;17.00;;;;;;5050992;28;20790;-75
2021/09/03 11:24:24;;;;;;;14.23;7.60;;;24.20;17.70;;;;;;5050176;28;20525;-76
2021/09/03 11:26:52;;;;;;;11.07;8.33;;;24.30;17.60;;;;;;5032525;28;20407;-76
2021/09/03 11:29:17;;;;;;;10.02;7.28;;;24.50;17.80;;;;;;5050852;28;20400;-76
2021/09/03 11:31:55;;;;;;;11.50;7.87;;;24.50;16.30;;;;;;5050826;28;20792;-76
2021/09/03 11:34:41;;;;;;;11.75;7.75;;;24.50;16.70;;;;;;5042680;28;20401;-76
2021/09/03 11:37:07;;;;;;;13.77;8.27;;;24.50;16.30;;;;;;5049721;28;20406;-76
2021/09/03 11:39:33;;;;;;;12.80;7.60;;;24.40;16.10;;;;;;5047046;28;20385;-75
2021/09/03 11:42:00;;;;;;;9.70;7.87;;;24.30;16.50;;;;;;5049805;28;20488;-77
2021/09/03 11:44:26;;;;;;;10.20;7.50;;;24.40;16.50;;;;;;5054125;28;20388;-77
2021/09/03 11:46:52;;;;;;;11.75;7.78;;;24.60;16.80;;;;;;5051952;28;20476;-77
2021/09/03 11:49:22;;;;;;;9.38;7.50;;;24.70;17.20;;;;;;5051518;28;20420;-77
2021/09/03 11:51:48;;;;;;;9.73;7.32;;;24.70;16.00;;;;;;5050001;28;20571;-77
2021/09/03 11:54:17;;;;;;;9.10;7.65;;;24.80;14.80;;;;;;5049998;28;20426;-76
2021/09/03 11:56:42;;;;;;;10.43;7.82;;;24.80;15.40;;;;;;5049067;28;20434;-76
2021/09/03 11:59:08;;;;;;;12.10;7.93;;;24.80;16.10;;;;;;5052448;28;20397;-76
2021/09/03 12:01:34;;;;;;;11.65;7.70;;;24.80;16.20;;;;;;5053540;28;20389;-76
2021/09/03 12:04:08;;;;;;;9.10;7.18;;;24.90;16.30;;;;;;5053202;28;20393;-77
2021/09/03 12:06:36;;;;;;;11.13;8.10;;;24.90;15.50;;;;;;5053477;28;20405;-76
2021/09/03 12:09:02;;;;;;;13.13;8.20;;;24.90;14.80;;;;;;5053257;28;20401;-76
2021/09/03 12:11:34;;;;;;;11.30;7.05;;;24.90;14.30;;;;;;5054376;28;20476;-73
2021/09/03 12:14:00;;;;;;;12.95;8.60;;;25.00;14.40;;;;;;5054482;28;20385;-77
2021/09/03 12:16:29;;;;;;;12.45;7.78;;;25.00;14.80;;;;;;5053411;28;20972;-75
2021/09/03 12:19:00;;;;;;;10.63;6.40;;;25.00;14.50;;;;;;5051861;28;20411;-76
2021/09/03 12:21:29;;;;;;;10.20;6.82;;;25.10;12.80;;;;;;5052687;28;20475;-74
2021/09/03 12:23:54;;;;;;;11.07;7.20;;;25.10;12.90;;;;;;5054559;28;20389;-77
2021/09/03 12:26:23;;;;;;;7.50;6.57;;;25.20;12.70;;;;;;5054005;28;20385;-77
2021/09/03 12:28:54;;;;;;;11.47;6.77;;;25.20;12.10;;;;;;5053399;28;20398;-78
2021/09/03 12:31:24;;;;;;;9.45;6.22;;;25.30;12.10;;;;;;5053520;28;20495;-76